createdAt,value
2017-08-08T00:00:30.299Z,70.77
2017-08-08T00:02:56.155Z,70.99
2017-08-08T00:05:22.099Z,71.03
2017-08-08T00:07:47.968Z,71.97
2017-08-08T00:10:13.787Z,72.69
2017-08-08T00:12:39.648Z,72.90
2017-08-08T00:15:05.567Z,72.89
2017-08-08T00:17:31.399Z,72.94
2017-08-08T00:19:57.231Z,72.79
2017-08-08T00:22:23.096Z,73.16
2017-08-08T00:24:48.925Z,73.86
2017-08-08T00:27:14.750Z,74.06
2017-08-08T00:29:40.708Z,73.94
2017-08-08T00:32:06.531Z,73.83
2017-08-08T00:34:32.427Z,73.65
2017-08-08T00:36:58.351Z,73.53
2017-08-08T00:39:24.172Z,73.96
2017-08-08T00:41:50.040Z,74.11
2017-08-08T00:44:15.871Z,73.88
2017-08-08T00:46:43.378Z,74.03
2017-08-08T00:49:09.357Z,73.92
2017-08-08T00:51:35.188Z,74.97
2017-08-08T00:54:01.006Z,74.92
2017-08-08T00:56:26.856Z,74.43
2017-08-08T00:58:52.760Z,74.95
2017-08-08T01:01:18.604Z,75.18
2017-08-08T01:03:44.424Z,74.88
2017-08-08T01:06:10.259Z,75.38
2017-08-08T01:08:36.105Z,75.47
2017-08-08T01:11:01.956Z,75.28
2017-08-08T01:13:27.892Z,75.65
2017-08-08T01:15:53.719Z,75.75
2017-08-08T01:18:19.581Z,75.52
2017-08-08T01:20:45.450Z,75.61
2017-08-08T01:23:11.343Z,75.66
2017-08-08T01:25:37.198Z,75.87
2017-08-08T01:28:03.076Z,75.78
2017-08-08T01:30:28.932Z,75.91
2017-08-08T01:32:54.871Z,75.96
2017-08-08T01:35:20.743Z,76.42
2017-08-08T01:37:46.575Z,76.92
2017-08-08T01:40:12.539Z,77.03
2017-08-08T01:42:38.368Z,76.90
2017-08-08T01:45:04.196Z,76.83
2017-08-08T01:47:30.066Z,76.67
2017-08-08T01:49:55.978Z,76.43
2017-08-08T01:52:21.829Z,77.12
2017-08-08T01:54:47.665Z,76.99
2017-08-08T01:57:13.523Z,76.39
2017-08-08T01:59:39.349Z,76.67
2017-08-08T02:02:05.302Z,77.03
2017-08-08T02:04:31.164Z,77.12
2017-08-08T02:06:57.103Z,76.96
2017-08-08T02:09:22.978Z,77.26
2017-08-08T02:11:48.804Z,77.21
2017-08-08T02:14:14.635Z,77.50
2017-08-08T02:16:40.480Z,76.75
2017-08-08T02:19:06.419Z,77.56
2017-08-08T02:21:32.275Z,77.19
2017-08-08T02:23:58.088Z,76.35
2017-08-08T02:26:23.924Z,77.35
2017-08-08T02:28:49.788Z,76.56
2017-08-08T02:31:15.712Z,76.21
2017-08-08T02:33:41.543Z,74.56
2017-08-08T02:36:07.385Z,76.12
2017-08-08T02:38:33.231Z,77.19
2017-08-08T02:40:59.080Z,77.18
2017-08-08T02:43:25.031Z,78.17
2017-08-08T02:45:50.832Z,78.51
2017-08-08T02:48:16.688Z,78.46
2017-08-08T02:50:42.541Z,78.77
2017-08-08T02:53:08.364Z,78.31
2017-08-08T02:55:34.330Z,77.45
2017-08-08T02:58:00.195Z,77.50
2017-08-08T03:00:26.003Z,77.99
2017-08-08T03:02:51.897Z,79.45
2017-08-08T03:05:17.785Z,78.34
2017-08-08T03:07:43.626Z,78.41
2017-08-08T03:10:09.472Z,76.84
2017-08-08T03:12:35.334Z,75.94
2017-08-08T03:15:01.140Z,75.20
2017-08-08T03:17:26.954Z,75.09
2017-08-08T03:19:52.798Z,76.39
2017-08-08T03:22:18.608Z,77.15
2017-08-08T03:24:44.606Z,74.00
2017-08-08T03:27:10.411Z,73.99
2017-08-08T03:29:36.223Z,76.08
2017-08-08T03:32:02.094Z,77.52
2017-08-08T03:34:28.052Z,77.04
2017-08-08T03:36:53.895Z,76.46
2017-08-08T03:39:19.754Z,77.27
2017-08-08T03:41:45.675Z,77.03
2017-08-08T03:44:11.500Z,76.83
2017-08-08T03:46:37.360Z,77.81
2017-08-08T03:49:03.219Z,76.48
2017-08-08T03:51:29.054Z,76.12
2017-08-08T03:53:55.011Z,75.57
2017-08-08T03:56:20.824Z,76.40
2017-08-08T03:58:46.631Z,76.51
2017-08-08T04:01:12.507Z,76.06
2017-08-08T04:03:38.523Z,75.89
2017-08-08T04:06:04.330Z,76.09
2017-08-08T04:08:30.374Z,77.24
2017-08-08T04:10:56.167Z,75.88
2017-08-08T04:13:22.019Z,76.01
2017-08-08T04:15:48.005Z,75.87
2017-08-08T04:18:13.809Z,76.50
2017-08-08T04:20:39.642Z,75.08
2017-08-08T04:23:05.440Z,75.53
2017-08-08T04:25:31.216Z,75.16
2017-08-08T04:27:57.120Z,75.25
2017-08-08T04:30:22.905Z,74.96
2017-08-08T04:32:48.696Z,75.10
2017-08-08T04:35:14.474Z,75.88
2017-08-08T04:37:40.397Z,75.78
2017-08-08T04:40:06.227Z,75.47
2017-08-08T04:42:32.058Z,75.31
2017-08-08T04:44:57.952Z,74.79
2017-08-08T04:47:23.877Z,74.65
2017-08-08T04:49:49.709Z,75.13
2017-08-08T04:52:15.700Z,74.48
2017-08-08T04:54:41.497Z,74.65
2017-08-08T04:57:07.383Z,74.53
2017-08-08T04:59:33.417Z,74.64
2017-08-08T05:01:59.376Z,75.16
2017-08-08T05:04:25.201Z,75.07
2017-08-08T05:06:51.041Z,75.28
2017-08-08T05:09:16.813Z,75.41
2017-08-08T05:11:42.780Z,75.23
2017-08-08T05:14:08.593Z,75.35
2017-08-08T05:16:34.512Z,75.21
2017-08-08T05:19:00.343Z,75.47
2017-08-08T05:21:26.385Z,75.07
2017-08-08T05:23:52.403Z,74.84
2017-08-08T05:26:18.231Z,74.91
2017-08-08T05:28:44.198Z,74.92
2017-08-08T05:31:10.045Z,75.57
2017-08-08T05:33:36.089Z,75.02
2017-08-08T05:36:01.868Z,75.12
2017-08-08T05:38:27.654Z,74.08
2017-08-08T05:40:53.468Z,73.48
2017-08-08T05:45:50.997Z,72.70
2017-08-08T05:48:16.834Z,72.57
2017-08-08T05:50:42.705Z,72.96
2017-08-08T05:53:08.534Z,72.20
2017-08-08T05:55:34.362Z,72.36
2017-08-08T05:58:00.194Z,72.57
2017-08-08T06:00:25.984Z,71.45
2017-08-08T06:02:51.773Z,71.74
2017-08-08T06:05:17.659Z,71.47
2017-08-08T06:07:43.440Z,71.37
2017-08-08T06:10:09.278Z,71.24
2017-08-08T06:12:35.097Z,70.68
2017-08-08T06:15:00.868Z,70.58
2017-08-08T06:17:26.648Z,70.42
2017-08-08T06:19:52.481Z,69.99
2017-08-08T06:22:18.316Z,69.93
2017-08-08T06:24:44.123Z,69.88
2017-08-08T06:27:09.909Z,69.23
2017-08-08T06:29:35.794Z,69.08
2017-08-08T06:32:01.636Z,68.22
2017-08-08T06:34:27.445Z,67.58
2017-08-08T06:36:53.241Z,67.16
2017-08-08T06:39:19.069Z,67.53
2017-08-08T06:41:44.856Z,66.45
2017-08-08T06:44:10.635Z,65.28
2017-08-08T06:46:36.493Z,64.30
2017-08-08T06:49:02.289Z,62.47
2017-08-08T06:51:28.196Z,61.58
2017-08-08T06:53:53.993Z,61.74
2017-08-08T06:56:19.885Z,63.13
2017-08-08T06:58:45.749Z,62.14
2017-08-08T07:01:11.657Z,61.94
2017-08-08T07:03:37.483Z,61.81
2017-08-08T07:06:03.360Z,60.64
2017-08-08T07:08:29.273Z,60.41
2017-08-08T07:10:55.055Z,60.52
2017-08-08T07:13:20.874Z,59.67
2017-08-08T07:15:46.739Z,59.78
2017-08-08T07:18:12.569Z,58.77
2017-08-08T07:20:38.394Z,57.35
2017-08-08T07:23:04.172Z,56.26
2017-08-08T07:25:29.998Z,55.40
2017-08-08T07:27:55.781Z,54.98
2017-08-08T07:30:21.753Z,53.39
2017-08-08T07:32:47.635Z,53.90
2017-08-08T07:35:13.536Z,54.87
2017-08-08T07:37:39.383Z,56.22
2017-08-08T07:40:05.187Z,56.22
2017-08-08T07:42:31.010Z,57.52
2017-08-08T07:44:56.799Z,57.95
2017-08-08T07:47:22.572Z,57.52
2017-08-08T07:49:50.257Z,57.50
2017-08-08T07:52:16.099Z,57.04
2017-08-08T07:54:41.939Z,56.53
2017-08-08T07:57:07.901Z,56.09
2017-08-08T07:59:33.745Z,56.15
2017-08-08T08:01:59.587Z,55.79
2017-08-08T08:04:25.383Z,55.53
2017-08-08T08:06:51.210Z,56.90
2017-08-08T08:09:17.028Z,58.82
2017-08-08T08:11:42.855Z,56.05
2017-08-08T08:14:08.697Z,51.16
2017-08-08T08:16:34.517Z,50.72
2017-08-08T08:19:00.351Z,50.05
2017-08-08T08:21:26.163Z,49.07
2017-08-08T08:23:51.928Z,53.27
2017-08-08T08:26:17.789Z,53.33
2017-08-08T08:28:43.570Z,51.05
2017-08-08T08:31:09.459Z,49.48
2017-08-08T08:33:35.360Z,48.70
2017-08-08T08:36:01.160Z,47.81
2017-08-08T08:38:27.111Z,49.21
2017-08-08T08:40:52.997Z,49.60
2017-08-08T08:43:18.837Z,53.13
2017-08-08T08:45:44.691Z,56.00
2017-08-08T08:48:10.561Z,55.35
2017-08-08T08:50:36.360Z,55.20
2017-08-08T08:53:02.219Z,55.04
2017-08-08T08:55:28.139Z,54.05
2017-08-08T08:57:54.012Z,53.78
2017-08-08T09:00:19.871Z,55.20
2017-08-08T09:02:45.663Z,55.32
2017-08-08T09:05:11.455Z,54.52
2017-08-08T09:07:37.286Z,54.39
2017-08-08T09:10:03.119Z,53.27
2017-08-08T09:12:28.955Z,54.24
2017-08-08T09:14:54.966Z,54.80
2017-08-08T09:17:20.814Z,54.92
2017-08-08T09:19:46.618Z,55.29
2017-08-08T09:22:12.412Z,57.34
2017-08-08T09:24:38.250Z,57.28
2017-08-08T09:27:04.057Z,58.19
2017-08-08T09:29:29.846Z,60.69
2017-08-08T09:31:55.661Z,60.25
2017-08-08T09:34:21.490Z,61.12
2017-08-08T09:36:47.312Z,64.27
2017-08-08T09:39:13.180Z,64.76
2017-08-08T09:41:39.096Z,66.16
2017-08-08T09:44:04.901Z,67.66
2017-08-08T09:46:30.766Z,68.11
2017-08-08T09:48:56.550Z,67.15
2017-08-08T09:51:22.379Z,67.85
2017-08-08T09:53:48.288Z,65.91
2017-08-08T09:56:14.073Z,67.89
2017-08-08T09:58:39.917Z,69.49
2017-08-08T10:01:05.709Z,68.55
2017-08-08T10:03:31.491Z,66.66
2017-08-08T10:05:57.317Z,65.18
2017-08-08T10:08:23.178Z,66.11
2017-08-08T10:10:48.999Z,66.42
2017-08-08T10:13:14.831Z,62.19
2017-08-08T10:15:40.621Z,64.92
2017-08-08T10:18:06.473Z,67.95
2017-08-08T10:20:32.266Z,63.47
2017-08-08T10:22:58.082Z,61.50
2017-08-08T10:25:23.895Z,65.88
2017-08-08T10:27:49.714Z,63.61
2017-08-08T10:30:15.574Z,63.07
2017-08-08T10:32:41.655Z,64.25
2017-08-08T10:35:07.503Z,63.81
2017-08-08T10:37:33.349Z,62.93
2017-08-08T10:39:59.150Z,62.52
2017-08-08T10:42:25.057Z,64.54
2017-08-08T10:44:50.871Z,64.26
2017-08-08T10:47:16.693Z,67.71
2017-08-08T10:49:42.746Z,65.27
2017-08-08T10:52:08.637Z,67.32
2017-08-08T10:54:34.550Z,66.63
2017-08-08T10:57:00.429Z,62.66
2017-08-08T10:59:26.386Z,63.70
2017-08-08T11:01:52.194Z,69.06
2017-08-08T11:04:18.068Z,65.91
2017-08-08T11:06:43.993Z,62.18
2017-08-08T11:09:09.807Z,62.82
2017-08-08T11:11:35.678Z,63.68
2017-08-08T11:14:01.468Z,68.55
2017-08-08T11:16:27.265Z,72.95
2017-08-08T11:18:53.084Z,73.47
2017-08-08T11:21:19.902Z,72.47
2017-08-08T11:23:45.744Z,70.25
2017-08-08T11:26:11.540Z,69.24
2017-08-08T11:28:37.401Z,62.67
2017-08-08T11:31:03.254Z,63.23
2017-08-08T11:33:29.063Z,62.39
2017-08-08T11:35:54.946Z,61.83
2017-08-08T11:38:20.841Z,60.79
2017-08-08T11:40:46.659Z,61.61
2017-08-08T11:43:12.505Z,61.52
2017-08-08T11:45:38.307Z,62.51
2017-08-08T11:48:04.224Z,62.17
2017-08-08T11:50:30.051Z,62.54
2017-08-08T11:52:56.031Z,64.48
2017-08-08T11:55:21.865Z,64.66
2017-08-08T11:57:47.653Z,64.85
2017-08-08T12:00:13.711Z,64.71
2017-08-08T12:02:39.552Z,65.27
2017-08-08T12:05:05.523Z,66.20
2017-08-08T12:07:31.320Z,66.56
2017-08-08T12:09:57.210Z,64.54
2017-08-08T12:12:23.189Z,63.51
2017-08-08T12:14:48.985Z,61.99
2017-08-08T12:17:14.860Z,59.92
2017-08-08T12:19:40.854Z,59.73
2017-08-08T12:22:06.693Z,60.33
2017-08-08T12:24:32.530Z,59.45
2017-08-08T12:26:58.452Z,61.43
2017-08-08T12:29:24.259Z,59.99
2017-08-08T12:31:50.206Z,60.22
2017-08-08T12:34:16.083Z,58.89
2017-08-08T12:36:41.950Z,59.15
2017-08-08T12:39:07.822Z,60.67
2017-08-08T12:41:33.833Z,59.71
2017-08-08T12:43:59.624Z,61.31
2017-08-08T12:46:25.453Z,61.36
2017-08-08T12:48:51.242Z,62.09
2017-08-08T12:51:17.060Z,62.08
2017-08-08T12:53:42.865Z,62.10
2017-08-08T12:56:08.722Z,63.22
2017-08-08T12:58:34.573Z,62.60
2017-08-08T13:01:00.401Z,63.31
2017-08-08T13:03:26.217Z,63.96
2017-08-08T13:05:52.025Z,64.34
2017-08-08T13:08:17.817Z,64.17
2017-08-08T13:10:43.627Z,63.59
2017-08-08T13:13:09.562Z,63.79
2017-08-08T13:15:35.363Z,63.89
2017-08-08T13:18:01.234Z,63.58
2017-08-08T13:20:27.169Z,63.92
2017-08-08T13:22:53.090Z,63.87
2017-08-08T13:25:18.908Z,64.68
2017-08-08T13:27:44.754Z,66.05
2017-08-08T13:30:10.595Z,64.90
2017-08-08T13:32:36.408Z,65.17
2017-08-08T13:35:02.247Z,66.08
2017-08-08T13:37:28.035Z,66.13
2017-08-08T13:39:53.859Z,64.41
2017-08-08T13:42:19.686Z,64.27
2017-08-08T13:44:45.527Z,64.46
2017-08-08T13:47:11.349Z,64.20
2017-08-08T13:49:37.215Z,64.66
2017-08-08T13:52:03.024Z,63.80
2017-08-08T13:54:29.047Z,63.35
2017-08-08T13:56:54.997Z,63.31
2017-08-08T13:59:20.822Z,62.28
2017-08-08T14:01:46.649Z,62.66
2017-08-08T14:04:12.474Z,63.09
2017-08-08T14:06:38.300Z,63.73
2017-08-08T14:09:04.128Z,63.52
2017-08-08T14:11:29.998Z,64.27
2017-08-08T14:13:55.917Z,64.47
2017-08-08T14:16:21.815Z,64.27
2017-08-08T14:18:47.776Z,65.13
2017-08-08T14:21:13.576Z,64.82
2017-08-08T14:23:39.447Z,65.09
2017-08-08T14:26:05.333Z,64.73
2017-08-08T14:28:31.211Z,65.58
2017-08-08T14:30:57.073Z,64.97
2017-08-08T14:33:22.871Z,65.11
2017-08-08T14:35:48.712Z,64.58
2017-08-08T14:38:14.612Z,63.33
2017-08-08T14:40:40.494Z,63.94
2017-08-08T14:43:06.361Z,63.02
2017-08-08T14:45:32.279Z,64.25
2017-08-08T14:47:58.070Z,64.50
2017-08-08T14:50:23.954Z,63.90
2017-08-08T14:52:49.915Z,63.68
2017-08-08T14:55:15.945Z,63.17
2017-08-08T14:57:41.946Z,62.59
2017-08-08T15:00:07.973Z,62.46
2017-08-08T15:02:33.808Z,62.24
2017-08-08T15:04:59.642Z,60.44
2017-08-08T15:07:25.524Z,61.19
2017-08-08T15:09:51.422Z,59.99
2017-08-08T15:12:17.270Z,57.35
2017-08-08T15:14:43.131Z,56.00
2017-08-08T15:17:09.015Z,56.79
2017-08-08T15:19:34.854Z,55.79
2017-08-08T15:22:00.701Z,57.03
2017-08-08T15:24:26.518Z,57.98
2017-08-08T15:26:52.363Z,58.60
2017-08-08T15:29:18.197Z,58.06
2017-08-08T15:31:44.023Z,56.48
2017-08-08T15:34:09.855Z,55.13
2017-08-08T15:36:35.703Z,54.33
2017-08-08T15:39:01.683Z,50.64
2017-08-08T15:41:27.537Z,50.51
2017-08-08T15:43:53.423Z,50.19
2017-08-08T15:46:19.249Z,49.65
2017-08-08T15:48:45.180Z,49.26
2017-08-08T15:51:11.045Z,49.32
2017-08-08T15:53:36.904Z,49.53
2017-08-08T15:56:02.811Z,50.54
2017-08-08T15:58:28.652Z,49.88
2017-08-08T16:00:54.559Z,49.96
2017-08-08T16:03:20.418Z,49.75
2017-08-08T16:05:46.214Z,50.85
2017-08-08T16:08:12.036Z,49.75
2017-08-08T16:10:37.919Z,47.75
2017-08-08T16:13:03.776Z,47.51
2017-08-08T16:15:29.560Z,47.24
2017-08-08T16:17:55.583Z,47.24
2017-08-08T16:20:21.440Z,47.64
2017-08-08T16:22:47.438Z,47.66
2017-08-08T16:25:13.237Z,47.76
2017-08-08T16:27:39.061Z,47.74
2017-08-08T16:30:04.853Z,47.12
2017-08-08T16:32:30.660Z,47.20
2017-08-08T16:34:56.543Z,47.03
2017-08-08T16:37:22.450Z,46.89
2017-08-08T16:39:48.328Z,47.45
2017-08-08T16:42:14.122Z,47.62
2017-08-08T16:44:39.990Z,48.29
2017-08-08T16:47:05.822Z,49.17
2017-08-08T16:49:31.612Z,49.82
2017-08-08T16:51:57.498Z,50.25
2017-08-08T16:54:23.386Z,50.09
2017-08-08T16:56:49.198Z,50.06
2017-08-08T16:59:15.150Z,50.52
2017-08-08T17:01:40.979Z,50.65
2017-08-08T17:04:06.827Z,51.09
2017-08-08T17:06:32.684Z,51.12
2017-08-08T17:08:58.484Z,51.53
2017-08-08T17:11:24.360Z,51.75
2017-08-08T17:13:50.193Z,52.67
2017-08-08T17:16:16.089Z,53.87
2017-08-08T17:18:41.986Z,54.09
2017-08-08T17:21:07.843Z,54.73
2017-08-08T17:23:33.719Z,54.74
2017-08-08T17:25:59.549Z,55.28
2017-08-08T17:28:25.353Z,55.56
2017-08-08T17:30:51.185Z,55.15
2017-08-08T17:33:17.000Z,56.29
2017-08-08T17:35:42.835Z,55.71
2017-08-08T17:38:08.649Z,56.44
2017-08-08T17:40:34.442Z,55.76
2017-08-08T17:43:00.342Z,56.43
2017-08-08T17:45:26.208Z,56.19
2017-08-08T17:47:52.025Z,56.75
2017-08-08T17:50:17.865Z,56.98
2017-08-08T17:52:43.655Z,57.21
2017-08-08T17:55:09.476Z,57.11
2017-08-08T17:57:35.390Z,57.79
2017-08-08T18:00:01.431Z,57.63
2017-08-08T18:02:27.482Z,57.76
2017-08-08T18:04:53.361Z,57.87
2017-08-08T18:07:19.226Z,57.96
2017-08-08T18:09:45.098Z,58.31
2017-08-08T18:12:11.152Z,57.50
2017-08-08T18:14:36.982Z,57.60
2017-08-08T18:17:02.973Z,57.75
2017-08-08T18:19:28.803Z,57.59
2017-08-08T18:21:54.783Z,57.54
2017-08-08T18:24:20.593Z,57.73
2017-08-08T18:26:46.419Z,58.06
2017-08-08T18:29:12.245Z,58.08
2017-08-08T18:31:38.078Z,58.43
2017-08-08T18:34:03.878Z,58.37
2017-08-08T18:36:29.696Z,58.42
2017-08-08T18:38:55.476Z,58.83
2017-08-08T18:41:21.299Z,59.05
2017-08-08T18:43:47.122Z,59.01
2017-08-08T18:46:12.914Z,59.19
2017-08-08T18:48:38.817Z,59.63
2017-08-08T18:51:04.638Z,59.96
2017-08-08T18:53:30.572Z,60.30
2017-08-08T18:55:56.356Z,60.10
2017-08-08T18:58:22.268Z,60.51
2017-08-08T19:00:48.100Z,61.14
2017-08-08T19:03:13.892Z,61.19
2017-08-08T19:05:39.749Z,60.96
2017-08-08T19:08:05.662Z,61.27
2017-08-08T19:10:31.636Z,61.37
2017-08-08T19:12:57.512Z,61.65
2017-08-08T19:15:23.316Z,61.74
2017-08-08T19:17:49.238Z,62.38
2017-08-08T19:20:15.264Z,63.19
2017-08-08T19:22:41.313Z,63.47
2017-08-08T19:25:07.227Z,64.72
2017-08-08T19:27:33.095Z,66.05
2017-08-08T19:29:58.907Z,67.24
2017-08-08T19:32:24.753Z,68.12
2017-08-08T19:34:50.620Z,68.65
2017-08-08T19:37:16.468Z,69.08
2017-08-08T19:39:42.436Z,69.62
2017-08-08T19:42:08.493Z,69.86
2017-08-08T19:44:34.396Z,70.27
2017-08-08T19:47:00.265Z,70.69
2017-08-08T19:49:26.118Z,70.44
2017-08-08T19:51:51.967Z,70.88
2017-08-08T19:54:17.844Z,70.95
2017-08-08T19:56:43.782Z,71.08
2017-08-08T19:59:09.624Z,71.33
2017-08-08T20:01:35.551Z,71.56
2017-08-08T20:04:01.375Z,72.45
2017-08-08T20:06:28.300Z,72.51
2017-08-08T20:08:54.215Z,72.52
2017-08-08T20:11:20.170Z,72.61
2017-08-08T20:13:46.058Z,73.07
2017-08-08T20:16:11.880Z,73.47
2017-08-08T20:18:37.730Z,73.85
2017-08-08T20:21:03.615Z,73.96
2017-08-08T20:23:29.484Z,74.17
2017-08-08T20:25:55.354Z,74.20
2017-08-08T20:28:21.250Z,74.20
2017-08-08T20:30:47.077Z,74.59
2017-08-08T20:33:12.904Z,74.65
2017-08-08T20:35:38.753Z,74.99
2017-08-08T20:38:04.777Z,75.38
2017-08-08T20:40:30.679Z,75.18
2017-08-08T20:42:56.582Z,75.26
2017-08-08T20:45:22.435Z,75.49
2017-08-08T20:47:48.496Z,75.03
2017-08-08T20:50:14.464Z,75.38
2017-08-08T20:52:40.384Z,75.80
2017-08-08T20:55:06.240Z,75.59
2017-08-08T20:57:32.150Z,75.94
2017-08-08T20:59:58.163Z,75.43
2017-08-08T21:02:24.088Z,75.69
2017-08-08T21:04:50.051Z,76.17
2017-08-08T21:07:15.911Z,76.43
2017-08-08T21:09:41.731Z,76.67
2017-08-08T21:12:07.634Z,76.52
2017-08-08T21:14:33.659Z,76.92
2017-08-08T21:16:59.479Z,76.96
2017-08-08T21:19:25.376Z,77.28
2017-08-08T21:21:51.283Z,77.23
2017-08-08T21:24:17.097Z,77.42
2017-08-08T21:26:42.924Z,77.54
2017-08-08T21:29:08.769Z,77.21
2017-08-08T21:31:34.639Z,77.48
2017-08-08T21:34:00.531Z,77.38
2017-08-08T21:36:26.447Z,77.71
2017-08-08T21:38:52.404Z,77.86
2017-08-08T21:41:18.240Z,78.05
2017-08-08T21:43:44.103Z,77.93
2017-08-08T21:46:09.918Z,76.93
2017-08-08T21:48:35.951Z,76.87
2017-08-08T21:51:01.908Z,77.08
2017-08-08T21:53:27.728Z,77.58
2017-08-08T21:55:53.632Z,78.08
2017-08-08T21:58:19.532Z,78.39
2017-08-08T22:00:45.359Z,78.53
2017-08-08T22:03:11.219Z,78.42
2017-08-08T22:05:37.044Z,78.53
2017-08-08T22:08:02.896Z,78.27
2017-08-08T22:10:28.816Z,78.28
2017-08-08T22:12:54.655Z,78.25
2017-08-08T22:15:20.512Z,78.08
2017-08-08T22:17:46.387Z,77.92
2017-08-08T22:20:12.349Z,78.25
2017-08-08T22:22:38.173Z,78.20
2017-08-08T22:25:03.986Z,77.99
2017-08-08T22:27:29.879Z,77.87
2017-08-08T22:29:55.819Z,77.50
2017-08-08T22:32:21.643Z,78.10
2017-08-08T22:34:47.539Z,78.34
2017-08-08T22:37:13.485Z,78.53
2017-08-08T22:39:39.300Z,78.69
2017-08-08T22:42:05.185Z,79.13
2017-08-08T22:44:31.200Z,79.48
2017-08-08T22:46:57.020Z,79.69
2017-08-08T22:49:22.980Z,79.76
2017-08-08T22:51:48.796Z,80.23
2017-08-08T22:54:14.667Z,80.63
2017-08-08T22:56:40.528Z,80.58
2017-08-08T22:59:06.439Z,79.08
2017-08-08T23:01:32.287Z,78.37
2017-08-08T23:03:58.159Z,77.80
2017-08-08T23:06:24.030Z,77.94
2017-08-08T23:08:49.996Z,77.61
2017-08-08T23:11:15.810Z,77.29
2017-08-08T23:13:41.657Z,76.95
2017-08-08T23:16:07.602Z,76.06
2017-08-08T23:18:33.420Z,75.61
2017-08-08T23:20:59.273Z,75.72
2017-08-08T23:23:25.130Z,76.03
2017-08-08T23:25:51.079Z,76.98
2017-08-08T23:31:17.901Z,77.31
2017-08-08T23:33:48.590Z,77.87
2017-08-08T23:36:16.872Z,78.31
2017-08-08T23:38:46.327Z,78.48
2017-08-08T23:41:16.039Z,78.61
2017-08-08T23:43:45.625Z,78.82
2017-08-08T23:46:22.494Z,79.45
2017-08-08T23:49:06.695Z,79.85
2017-08-08T23:51:36.510Z,80.26
2017-08-08T23:54:12.184Z,79.33
2017-08-08T23:56:41.576Z,79.55
2017-08-08T23:59:20.640Z,79.02
